createdAt,value
2023-04-11T00:01:51.294Z,100662.84
2023-04-11T00:04:20.968Z,100659.41
2023-04-11T00:06:48.775Z,100661.31
2023-04-11T00:09:17.193Z,100670.09
2023-04-11T00:11:44.796Z,100667.66
2023-04-11T00:14:16.285Z,100663.50
2023-04-11T00:16:43.975Z,100665.44
2023-04-11T00:19:17.248Z,100658.66
2023-04-11T00:21:46.692Z,100670.03
2023-04-11T00:24:15.504Z,100662.44
2023-04-11T00:26:42.866Z,100661.66
2023-04-11T00:29:10.350Z,100667.91
2023-04-11T00:31:38.128Z,100670.69
2023-04-11T00:34:05.459Z,100666.59
2023-04-11T00:36:32.884Z,100663.22
2023-04-11T00:39:08.880Z,100675.59
2023-04-11T00:41:37.678Z,100672.28
2023-04-11T00:44:08.560Z,100663.13
2023-04-11T00:46:35.986Z,100674.44
2023-04-11T00:49:06.221Z,100674.75
2023-04-11T00:51:33.608Z,100675.81
2023-04-11T00:54:04.140Z,100667.34
2023-04-11T00:56:31.478Z,100670.03
2023-04-11T00:58:58.983Z,100668.66
2023-04-11T01:01:26.427Z,100676.41
2023-04-11T01:04:01.053Z,100672.31
2023-04-11T01:06:33.685Z,100679.31
2023-04-11T01:09:05.173Z,100672.47
2023-04-11T01:11:34.236Z,100674.31
2023-04-11T01:14:03.181Z,100670.88
2023-04-11T01:16:30.688Z,100677.22
2023-04-11T01:18:58.162Z,100665.06
2023-04-11T01:21:28.466Z,100679.22
2023-04-11T01:23:58.439Z,100669.78
2023-04-11T01:26:26.048Z,100672.53
2023-04-11T01:28:56.397Z,100671.78
2023-04-11T01:31:24.294Z,100676.13
2023-04-11T01:33:51.586Z,100671.06
2023-04-11T01:36:21.292Z,100670.22
2023-04-11T01:38:49.400Z,100678.06
2023-04-11T01:41:18.371Z,100672.91
2023-04-11T01:43:48.251Z,100681.72
2023-04-11T01:46:18.395Z,100683.56
2023-04-11T01:48:51.747Z,100683.72
2023-04-11T01:51:23.382Z,100682.88
2023-04-11T01:53:52.318Z,100690.78
2023-04-11T01:56:20.472Z,100691.69
2023-04-11T01:58:49.273Z,100706.44
2023-04-11T02:01:20.061Z,100701.16
2023-04-11T02:03:48.931Z,100710.66
2023-04-11T02:06:17.498Z,100713.13
2023-04-11T02:08:46.382Z,100715.59
2023-04-11T02:11:16.458Z,100712.22
2023-04-11T02:13:46.612Z,100722.66
2023-04-11T02:16:18.178Z,100721.75
2023-04-11T02:18:46.366Z,100722.59
2023-04-11T02:21:16.488Z,100715.50
2023-04-11T02:23:43.736Z,100706.16
2023-04-11T02:26:14.495Z,100711.59
2023-04-11T02:28:43.621Z,100713.41
2023-04-11T02:31:11.445Z,100718.00
2023-04-11T02:33:42.633Z,100716.50
2023-04-11T02:36:12.589Z,100714.91
2023-04-11T02:38:39.917Z,100714.09
2023-04-11T02:41:08.504Z,100717.56
2023-04-11T02:43:36.155Z,100714.22
2023-04-11T02:46:12.669Z,100717.72
2023-04-11T02:48:44.363Z,100734.22
2023-04-11T02:51:13.443Z,100726.25
2023-04-11T02:53:43.099Z,100720.19
2023-04-11T02:56:27.307Z,100722.78
2023-04-11T02:58:57.753Z,100724.75
2023-04-11T03:01:29.339Z,100718.75
2023-04-11T03:03:59.543Z,100723.28
2023-04-11T03:06:37.484Z,100725.09
2023-04-11T03:09:12.393Z,100723.56
2023-04-11T03:11:40.259Z,100729.59
2023-04-11T03:14:08.218Z,100727.00
2023-04-11T03:16:38.930Z,100737.56
2023-04-11T03:19:08.063Z,100735.16
2023-04-11T03:21:36.785Z,100731.84
2023-04-11T03:24:05.931Z,100738.97
2023-04-11T03:26:39.575Z,100746.94
2023-04-11T03:29:12.123Z,100747.97
2023-04-11T03:31:51.706Z,100746.25
2023-04-11T03:34:19.649Z,100753.06
2023-04-11T03:36:48.840Z,100766.09
2023-04-11T03:39:23.248Z,100762.44
2023-04-11T03:41:53.105Z,100764.19
2023-04-11T03:44:20.520Z,100775.34
2023-04-11T03:47:08.528Z,100767.53
2023-04-11T03:49:41.118Z,100764.06
2023-04-11T03:52:09.934Z,100759.78
2023-04-11T03:54:50.463Z,100767.34
2023-04-11T03:57:19.528Z,100777.63
2023-04-11T03:59:47.964Z,100781.91
2023-04-11T04:02:16.413Z,100791.44
2023-04-11T04:05:00.451Z,100779.25
2023-04-11T04:07:35.314Z,100785.41
2023-04-11T04:10:23.548Z,100786.09
2023-04-11T04:12:54.894Z,100784.31
2023-04-11T04:15:25.487Z,100789.47
2023-04-11T04:18:02.766Z,100791.25
2023-04-11T04:20:51.276Z,100803.28
2023-04-11T04:23:21.755Z,100797.31
2023-04-11T04:26:02.087Z,100803.44
2023-04-11T04:28:34.322Z,100814.78
2023-04-11T04:31:04.573Z,100809.59
2023-04-11T04:33:46.588Z,100803.59
2023-04-11T04:36:21.846Z,100810.53
2023-04-11T04:38:50.685Z,100812.31
2023-04-11T04:41:17.948Z,100812.44
2023-04-11T04:43:58.518Z,100823.91
2023-04-11T04:47:02.314Z,100819.78
2023-04-11T04:49:30.777Z,100822.56
2023-04-11T04:52:02.788Z,100823.66
2023-04-11T04:54:33.899Z,100834.22
2023-04-11T04:57:24.373Z,100832.72
2023-04-11T04:59:52.103Z,100834.59
2023-04-11T05:02:22.254Z,100841.72
2023-04-11T05:04:51.381Z,100855.00
2023-04-11T05:07:20.982Z,100848.97
2023-04-11T05:09:54.558Z,100861.25
2023-04-11T05:12:29.727Z,100863.91
2023-04-11T05:15:05.425Z,100871.72
2023-04-11T05:17:37.689Z,100877.00
2023-04-11T05:20:10.324Z,100865.72
2023-04-11T05:22:44.891Z,100873.50
2023-04-11T05:25:15.887Z,100869.19
2023-04-11T05:27:45.047Z,100874.47
2023-04-11T05:30:24.398Z,100878.91
2023-04-11T05:32:55.105Z,100889.25
2023-04-11T05:35:22.944Z,100884.16
2023-04-11T05:37:58.390Z,100885.00
2023-04-11T05:40:27.266Z,100895.50
2023-04-11T05:42:54.608Z,100899.88
2023-04-11T05:45:22.683Z,100899.88
2023-04-11T05:47:53.846Z,100899.56
2023-04-11T05:50:21.561Z,100907.75
2023-04-11T05:52:48.889Z,100909.50
2023-04-11T05:55:24.060Z,100917.22
2023-04-11T05:57:51.508Z,100921.56
2023-04-11T06:00:20.768Z,100924.91
2023-04-11T06:02:59.003Z,100925.81
2023-04-11T06:05:32.640Z,100929.06
2023-04-11T06:08:03.443Z,100930.47
2023-04-11T06:10:36.263Z,100933.59
2023-04-11T06:13:05.050Z,100932.53
2023-04-11T06:15:38.537Z,100932.16
2023-04-11T06:18:07.413Z,100931.16
2023-04-11T06:20:38.234Z,100938.84
2023-04-11T06:23:08.677Z,100945.66
2023-04-11T06:25:36.386Z,100944.63
2023-04-11T06:28:05.898Z,100942.84
2023-04-11T06:30:34.700Z,100943.69
2023-04-11T06:33:03.645Z,100951.31
2023-04-11T06:35:37.954Z,100937.56
2023-04-11T06:38:07.386Z,100951.31
2023-04-11T06:40:37.820Z,100955.84
2023-04-11T06:43:18.913Z,100948.06
2023-04-11T06:45:52.130Z,100955.44
2023-04-11T06:48:22.451Z,100959.91
2023-04-11T06:50:51.189Z,100963.31
2023-04-11T06:53:19.547Z,100969.81
2023-04-11T06:55:51.477Z,100971.19
2023-04-11T06:58:26.129Z,100974.31
2023-04-11T07:01:04.123Z,100968.38
2023-04-11T07:03:32.642Z,100977.44
2023-04-11T07:06:00.277Z,100974.91
2023-04-11T07:08:31.393Z,100979.88
2023-04-11T07:11:02.191Z,100984.22
2023-04-11T07:13:40.899Z,100988.94
2023-04-11T07:16:12.826Z,100989.69
2023-04-11T07:18:42.785Z,100985.88
2023-04-11T07:21:23.782Z,100992.91
2023-04-11T07:23:55.584Z,101000.75
2023-04-11T07:26:31.881Z,100996.78
2023-04-11T07:29:01.929Z,100985.19
2023-04-11T07:31:38.524Z,100998.56
2023-04-11T07:34:07.712Z,100999.22
2023-04-11T07:36:36.938Z,100995.03
2023-04-11T07:39:13.581Z,101005.44
2023-04-11T07:41:42.630Z,101011.28
2023-04-11T07:44:17.086Z,101018.91
2023-04-11T07:49:42.359Z,101006.06
2023-04-11T07:52:26.372Z,101007.97
2023-04-11T07:54:54.364Z,101021.25
2023-04-11T07:57:28.157Z,101017.06
2023-04-11T08:00:08.231Z,101013.03
2023-04-11T08:02:41.377Z,101023.97
2023-04-11T08:05:10.281Z,101018.13
2023-04-11T08:07:39.631Z,101017.91
2023-04-11T08:10:09.892Z,101029.69
2023-04-11T08:12:44.710Z,101031.84
2023-04-11T08:15:39.071Z,101035.69
2023-04-11T08:18:37.581Z,101038.25
2023-04-11T08:21:09.014Z,101031.22
2023-04-11T08:23:37.286Z,101038.16
2023-04-11T08:26:20.499Z,101051.16
2023-04-11T08:28:54.808Z,101043.47
2023-04-11T08:31:23.290Z,101047.09
2023-04-11T08:33:51.188Z,101052.78
2023-04-11T08:36:28.545Z,101060.25
2023-04-11T08:38:58.838Z,101066.13
2023-04-11T08:41:34.879Z,101082.28
2023-04-11T08:44:06.763Z,101069.75
2023-04-11T08:46:50.666Z,101076.91
2023-04-11T08:49:21.455Z,101066.88
2023-04-11T08:51:58.385Z,101071.31
2023-04-11T08:54:34.884Z,101073.84
2023-04-11T08:57:04.967Z,101069.00
2023-04-11T08:59:36.617Z,101057.97
2023-04-11T09:02:11.804Z,101070.94
2023-04-11T09:05:01.317Z,101065.50
2023-04-11T09:07:29.834Z,101061.63
2023-04-11T09:09:57.673Z,101059.53
2023-04-11T09:12:32.990Z,101067.66
2023-04-11T09:15:34.956Z,101053.66
2023-04-11T09:18:11.931Z,101059.06
2023-04-11T09:20:40.880Z,101073.22
2023-04-11T09:23:27.326Z,101075.44
2023-04-11T09:25:55.300Z,101068.72
2023-04-11T09:28:54.591Z,101060.53
2023-04-11T09:31:52.494Z,101077.28
2023-04-11T09:34:29.581Z,101084.06
2023-04-11T09:37:03.896Z,101089.81
2023-04-11T09:39:36.645Z,101069.38
2023-04-11T09:42:26.126Z,101085.38
2023-04-11T09:44:54.327Z,101094.09
2023-04-11T09:47:22.182Z,101093.94
2023-04-11T09:49:50.744Z,101104.66
2023-04-11T09:52:25.684Z,101102.63
2023-04-11T09:55:01.760Z,101095.06
2023-04-11T09:57:41.997Z,101091.66
2023-04-11T10:00:19.618Z,101103.94
2023-04-11T10:03:05.524Z,101106.88
2023-04-11T10:05:34.347Z,101100.25
2023-04-11T10:08:10.703Z,101101.78
2023-04-11T10:10:47.653Z,101105.09
2023-04-11T10:13:50.232Z,101099.53
2023-04-11T10:16:21.373Z,101111.25
2023-04-11T10:19:18.262Z,101109.81
2023-04-11T10:22:06.698Z,101107.34
2023-04-11T10:24:40.023Z,101108.97
2023-04-11T10:27:31.723Z,101101.16
2023-04-11T10:30:06.431Z,101096.47
2023-04-11T10:32:35.185Z,101098.59
2023-04-11T10:35:09.436Z,101103.22
2023-04-11T10:37:38.995Z,101085.41
2023-04-11T10:40:13.637Z,101097.75
2023-04-11T10:42:47.243Z,101095.75
2023-04-11T10:45:26.580Z,101095.22
2023-04-11T10:47:57.143Z,101107.19
2023-04-11T10:50:46.123Z,101100.59
2023-04-11T10:53:38.520Z,101085.25
2023-04-11T10:56:07.544Z,101092.88
2023-04-11T10:58:41.192Z,101098.97
2023-04-11T11:01:26.309Z,101099.13
2023-04-11T11:04:06.132Z,101106.34
2023-04-11T11:06:43.025Z,101106.56
2023-04-11T11:09:27.258Z,101102.72
2023-04-11T11:12:17.550Z,101087.44
2023-04-11T11:14:47.379Z,101107.53
2023-04-11T11:17:24.465Z,101105.00
2023-04-11T11:19:53.397Z,101107.41
2023-04-11T11:22:26.255Z,101116.09
2023-04-11T11:24:54.445Z,101111.28
2023-04-11T11:27:26.586Z,101109.38
2023-04-11T11:29:56.285Z,101110.19
2023-04-11T11:32:36.997Z,101103.81
2023-04-11T11:35:16.420Z,101104.91
2023-04-11T11:37:46.973Z,101092.34
2023-04-11T11:40:19.844Z,101107.66
2023-04-11T11:42:50.999Z,101112.66
2023-04-11T11:45:22.882Z,101114.06
2023-04-11T11:47:58.336Z,101115.47
2023-04-11T11:50:36.320Z,101122.72
2023-04-11T11:53:18.851Z,101125.88
2023-04-11T11:55:47.826Z,101124.03
2023-04-11T11:58:25.669Z,101122.72
2023-04-11T12:00:59.052Z,101118.25
2023-04-11T12:03:29.870Z,101125.00
2023-04-11T12:05:59.183Z,101117.19
2023-04-11T12:08:26.550Z,101119.59
2023-04-11T12:10:54.374Z,101122.25
2023-04-11T12:13:28.232Z,101137.66
2023-04-11T12:16:04.339Z,101121.91
2023-04-11T12:18:43.734Z,101106.97
2023-04-11T12:21:10.964Z,101116.56
2023-04-11T12:23:38.639Z,101109.91
2023-04-11T12:26:08.733Z,101114.03
2023-04-11T12:28:37.047Z,101120.78
2023-04-11T12:31:21.236Z,101130.34
2023-04-11T12:33:52.878Z,101118.63
2023-04-11T12:36:21.898Z,101121.75
2023-04-11T12:38:58.400Z,101118.56
2023-04-11T12:44:11.478Z,101119.97
2023-04-11T12:46:49.140Z,101125.88
2023-04-11T12:49:22.341Z,101123.94
2023-04-11T12:51:51.835Z,101114.97
2023-04-11T12:54:23.051Z,101115.44
2023-04-11T12:59:43.724Z,101121.66
2023-04-11T13:02:25.005Z,101121.13
2023-04-11T13:04:56.082Z,101118.88
2023-04-11T13:07:26.698Z,101123.28
2023-04-11T13:09:57.433Z,101111.63
2023-04-11T13:12:24.824Z,101108.16
2023-04-11T13:14:56.895Z,101112.81
2023-04-11T13:17:28.022Z,101115.69
2023-04-11T13:19:57.924Z,101115.38
2023-04-11T13:22:27.740Z,101116.78
2023-04-11T13:24:59.147Z,101117.72
2023-04-11T13:27:33.516Z,101123.41
2023-04-11T13:30:14.148Z,101110.22
2023-04-11T13:32:53.717Z,101119.34
2023-04-11T13:35:21.899Z,101104.88
2023-04-11T13:37:50.147Z,101115.59
2023-04-11T13:40:27.869Z,101106.19
2023-04-11T13:42:57.008Z,101105.38
2023-04-11T13:45:49.525Z,101108.72
2023-04-11T13:48:18.170Z,101096.50
2023-04-11T13:50:46.315Z,101098.13
2023-04-11T13:53:15.971Z,101089.81
2023-04-11T13:55:59.660Z,101086.44
2023-04-11T13:58:33.771Z,101081.84
2023-04-11T14:01:03.288Z,101093.66
2023-04-11T14:03:33.812Z,101094.53
2023-04-11T14:08:56.381Z,101089.34
2023-04-11T14:11:28.674Z,101094.28
2023-04-11T14:13:59.103Z,101085.25
2023-04-11T14:16:29.962Z,101088.09
2023-04-11T14:19:10.408Z,101085.59
2023-04-11T14:21:39.238Z,101090.84
2023-04-11T14:24:14.596Z,101080.84
2023-04-11T14:26:43.572Z,101072.75
2023-04-11T14:29:12.797Z,101073.00
2023-04-11T14:31:42.768Z,101079.41
2023-04-11T14:34:27.266Z,101069.09
2023-04-11T14:37:11.153Z,101063.56
2023-04-11T14:39:40.204Z,101057.72
2023-04-11T14:42:12.539Z,101063.53
2023-04-11T14:44:41.262Z,101071.81
2023-04-11T14:47:14.489Z,101075.03
2023-04-11T14:49:48.134Z,101064.81
2023-04-11T14:52:18.649Z,101067.31
2023-04-11T14:54:48.885Z,101055.28
2023-04-11T14:57:18.630Z,101054.28
2023-04-11T14:59:55.748Z,101055.88
2023-04-11T15:02:26.272Z,101057.38
2023-04-11T15:05:01.032Z,101051.75
2023-04-11T15:07:30.109Z,101045.97
2023-04-11T15:10:02.656Z,101035.81
2023-04-11T15:12:39.479Z,101029.84
2023-04-11T15:15:14.796Z,101032.53
2023-04-11T15:18:11.807Z,101026.91
2023-04-11T15:20:42.624Z,101035.38
2023-04-11T15:23:22.368Z,101027.41
2023-04-11T15:26:03.021Z,101021.38
2023-04-11T15:28:38.825Z,101022.28
2023-04-11T15:31:15.257Z,101030.66
2023-04-11T15:33:47.076Z,101022.94
2023-04-11T15:36:17.924Z,101019.84
2023-04-11T15:38:47.107Z,101023.94
2023-04-11T15:41:22.942Z,101016.53
2023-04-11T15:43:52.876Z,101017.06
2023-04-11T15:46:49.425Z,101011.50
2023-04-11T15:49:18.812Z,101009.91
2023-04-11T15:52:02.777Z,101014.28
2023-04-11T15:54:34.602Z,101002.53
2023-04-11T15:57:03.478Z,101014.28
2023-04-11T15:59:33.453Z,101008.31
2023-04-11T16:02:02.887Z,101010.25
2023-04-11T16:04:31.830Z,101002.41
2023-04-11T16:07:00.965Z,101011.84
2023-04-11T16:09:28.921Z,100996.31
2023-04-11T16:11:57.777Z,100995.44
2023-04-11T16:14:33.084Z,100993.34
2023-04-11T16:17:03.190Z,100987.41
2023-04-11T16:19:35.849Z,100982.97
2023-04-11T16:22:03.472Z,100990.28
2023-04-11T16:24:33.287Z,100984.25
2023-04-11T16:27:02.712Z,100981.81
2023-04-11T16:29:31.238Z,100983.25
2023-04-11T16:32:00.001Z,100973.00
2023-04-11T16:34:27.336Z,100981.88
2023-04-11T16:36:56.546Z,100972.84
2023-04-11T16:39:26.359Z,100979.97
2023-04-11T16:41:55.997Z,100976.28
2023-04-11T16:44:25.247Z,100972.56
2023-04-11T16:46:55.978Z,100981.72
2023-04-11T16:49:26.353Z,100972.56
2023-04-11T16:51:54.045Z,100966.53
2023-04-11T16:54:21.980Z,100965.91
2023-04-11T16:56:51.015Z,100965.06
2023-04-11T16:59:19.945Z,100953.88
2023-04-11T17:01:47.455Z,100953.25
2023-04-11T17:04:15.468Z,100939.56
2023-04-11T17:06:43.204Z,100951.03
2023-04-11T17:09:10.815Z,100941.63
2023-04-11T17:11:39.673Z,100946.25
2023-04-11T17:14:06.971Z,100934.53
2023-04-11T17:16:35.620Z,100929.78
2023-04-11T17:19:11.555Z,100937.34
2023-04-11T17:21:38.932Z,100915.19
2023-04-11T17:24:09.733Z,100925.91
2023-04-11T17:26:38.634Z,100918.63
2023-04-11T17:29:06.596Z,100910.09
2023-04-11T17:31:34.104Z,100907.56
2023-04-11T17:34:02.027Z,100911.22
2023-04-11T17:36:30.939Z,100908.88
2023-04-11T17:38:59.898Z,100909.16
2023-04-11T17:41:31.137Z,100897.16
2023-04-11T17:44:00.163Z,100901.00
2023-04-11T17:46:27.875Z,100889.31
2023-04-11T17:48:57.715Z,100891.34
2023-04-11T17:51:43.055Z,100885.00
2023-04-11T17:54:18.278Z,100893.84
2023-04-11T17:56:46.991Z,100884.53
2023-04-11T17:59:17.606Z,100883.91
2023-04-11T18:01:46.948Z,100876.28
2023-04-11T18:04:24.092Z,100870.19
2023-04-11T18:06:52.477Z,100870.59
2023-04-11T18:09:26.683Z,100876.69
2023-04-11T18:11:58.295Z,100860.75
2023-04-11T18:14:28.143Z,100872.91
2023-04-11T18:16:56.160Z,100869.66
2023-04-11T18:19:25.303Z,100868.81
2023-04-11T18:21:52.887Z,100870.66
2023-04-11T18:24:20.364Z,100865.59
2023-04-11T18:26:48.172Z,100866.75
2023-04-11T18:29:17.635Z,100871.16
2023-04-11T18:31:47.301Z,100868.59
2023-04-11T18:34:15.060Z,100869.66
2023-04-11T18:36:43.154Z,100870.69
2023-04-11T18:39:11.344Z,100861.19
2023-04-11T18:41:38.777Z,100859.63
2023-04-11T18:44:11.804Z,100858.66
2023-04-11T18:46:41.009Z,100848.25
2023-04-11T18:49:08.370Z,100860.28
2023-04-11T18:51:37.966Z,100851.66
2023-04-11T18:54:05.864Z,100851.84
2023-04-11T18:56:35.604Z,100855.56
2023-04-11T18:59:09.284Z,100855.84
2023-04-11T19:01:39.218Z,100843.19
2023-04-11T19:04:12.175Z,100848.72
2023-04-11T19:06:39.942Z,100852.56
2023-04-11T19:09:11.012Z,100855.44
2023-04-11T19:11:41.071Z,100851.25
2023-04-11T19:14:09.877Z,100844.47
2023-04-11T19:16:37.226Z,100848.13
2023-04-11T19:19:07.333Z,100837.72
2023-04-11T19:21:36.155Z,100837.91
2023-04-11T19:24:08.623Z,100848.63
2023-04-11T19:26:35.982Z,100844.53
2023-04-11T19:29:05.869Z,100845.63
2023-04-11T19:31:36.152Z,100839.72
2023-04-11T19:34:04.976Z,100839.16
2023-04-11T19:36:33.903Z,100837.63
2023-04-11T19:39:02.568Z,100833.59
2023-04-11T19:41:29.974Z,100837.06
2023-04-11T19:43:57.460Z,100827.41
2023-04-11T19:46:25.771Z,100822.34
2023-04-11T19:49:06.086Z,100817.94
2023-04-11T19:51:37.239Z,100815.38
2023-04-11T19:54:06.076Z,100793.75
2023-04-11T19:56:36.402Z,100792.03
2023-04-11T19:59:03.736Z,100791.28
2023-04-11T20:01:32.671Z,100780.41
2023-04-11T20:04:02.344Z,100782.44
2023-04-11T20:06:34.756Z,100777.28
2023-04-11T20:09:13.780Z,100766.22
2023-04-11T20:11:49.921Z,100768.19
2023-04-11T20:14:18.167Z,100756.09
2023-04-11T20:16:46.686Z,100751.84
2023-04-11T20:19:15.135Z,100763.22
2023-04-11T20:21:45.198Z,100754.47
2023-04-11T20:24:12.837Z,100752.03
2023-04-11T20:26:40.245Z,100746.97
2023-04-11T20:29:09.157Z,100744.44
2023-04-11T20:31:36.409Z,100730.41
2023-04-11T20:34:04.321Z,100731.22
2023-04-11T20:36:32.965Z,100726.94
2023-04-11T20:39:01.522Z,100719.25
2023-04-11T20:41:30.236Z,100718.38
2023-04-11T20:43:59.309Z,100713.13
2023-04-11T20:46:29.994Z,100699.47
2023-04-11T20:48:58.745Z,100695.06
2023-04-11T20:51:26.717Z,100697.75
2023-04-11T20:53:54.095Z,100690.06
2023-04-11T20:56:25.043Z,100675.22
2023-04-11T20:58:53.161Z,100672.59
2023-04-11T21:01:23.852Z,100659.47
2023-04-11T21:03:51.719Z,100652.63
2023-04-11T21:06:20.467Z,100644.94
2023-04-11T21:08:49.245Z,100650.09
2023-04-11T21:11:16.613Z,100650.09
2023-04-11T21:13:43.861Z,100636.16
2023-04-11T21:16:13.859Z,100638.84
2023-04-11T21:18:41.768Z,100627.59
2023-04-11T21:21:11.001Z,100623.47
2023-04-11T21:23:41.967Z,100617.47
2023-04-11T21:26:12.237Z,100606.34
2023-04-11T21:28:40.635Z,100614.19
2023-04-11T21:31:09.324Z,100601.19
2023-04-11T21:33:37.233Z,100606.50
2023-04-11T21:36:05.149Z,100600.53
2023-04-11T21:38:32.504Z,100598.09
2023-04-11T21:41:00.167Z,100601.72
2023-04-11T21:43:30.627Z,100587.09
2023-04-11T21:45:58.409Z,100589.81
2023-04-11T21:48:26.840Z,100599.44
2023-04-11T21:50:56.487Z,100602.34
2023-04-11T21:53:26.432Z,100606.84
2023-04-11T21:55:54.215Z,100597.19
2023-04-11T21:58:29.191Z,100595.41
2023-04-11T22:00:59.390Z,100590.16
2023-04-11T22:03:29.455Z,100590.16
2023-04-11T22:06:02.020Z,100577.25
2023-04-11T22:08:29.439Z,100574.22
2023-04-11T22:10:58.485Z,100572.91
2023-04-11T22:13:27.577Z,100562.88
2023-04-11T22:16:04.962Z,100563.88
2023-04-11T22:18:46.734Z,100561.59
2023-04-11T22:21:22.305Z,100556.34
2023-04-11T22:23:58.123Z,100563.63
2023-04-11T22:26:33.932Z,100557.13
2023-04-11T22:29:06.748Z,100552.75
2023-04-11T22:31:34.568Z,100537.81
2023-04-11T22:34:04.814Z,100548.63
2023-04-11T22:36:35.880Z,100540.47
2023-04-11T22:39:06.802Z,100534.19
2023-04-11T22:41:38.415Z,100524.31
2023-04-11T22:44:06.574Z,100528.81
2023-04-11T22:46:40.245Z,100512.50
2023-04-11T22:49:12.692Z,100510.81
2023-04-11T22:51:42.191Z,100501.44
2023-04-11T22:54:13.932Z,100493.59
2023-04-11T22:56:41.888Z,100481.63
2023-04-11T22:59:09.342Z,100487.72
2023-04-11T23:01:39.517Z,100470.50
2023-04-11T23:04:11.343Z,100462.66
2023-04-11T23:06:39.920Z,100453.31
2023-04-11T23:09:07.409Z,100449.81
2023-04-11T23:11:36.969Z,100448.06
2023-04-11T23:14:04.723Z,100442.06
2023-04-11T23:16:32.024Z,100446.47
2023-04-11T23:19:00.028Z,100449.16
2023-04-11T23:21:31.502Z,100464.84
2023-04-11T23:24:03.262Z,100446.72
2023-04-11T23:26:30.604Z,100423.34
2023-04-11T23:28:58.003Z,100424.19
2023-04-11T23:31:25.317Z,100428.56
2023-04-11T23:33:53.703Z,100408.84
2023-04-11T23:36:21.103Z,100416.09
2023-04-11T23:38:48.587Z,100420.72
2023-04-11T23:41:15.872Z,100426.28
2023-04-11T23:43:43.252Z,100410.84
2023-04-11T23:46:11.606Z,100404.09
2023-04-11T23:48:40.226Z,100389.56
2023-04-11T23:51:09.205Z,100382.00
2023-04-11T23:53:36.490Z,100393.63
2023-04-11T23:56:04.100Z,100383.50
2023-04-11T23:58:31.593Z,100392.41
